MSC Fiammetta — 3EOU7 — position and weather

sailwx.info

Track history (hours):
 
Tides and Currents Weather Stations Pressure Air Temp Water Temp Dewpoint Dewpoint Depression Visibility Wind Speed Wind Dir Waves Ship Positions

MSC Fiammetta

Last reported at 2017-Sep-22 02:00 UTC. Time now 2017-Sep-25 01:08 UTC.
Position S 24°19' W 046°24'.

Length 277 m; draft 10.3 m.

Type: Ship (hazmat cat A). MMSI: 372843000.

Date/timePositionNaut miles runAvg speedWind from/ knotsBaromVisibWave heightAir tempDewpointWater temp
2017-Sep-22 02:00S 24°19' W 046°24'2 4.9
2017-Sep-22 01:30S 24°21' W 046°26'4 7.2
2017-Sep-22 01:00S 24°24' W 046°29'2 4.4
2017-Sep-22 00:30S 24°24' W 046°31'1 1.1
2017-Sep-22 00:00S 24°24' W 046°30'1 1.1
2017-Sep-21 23:30S 24°24' W 046°30'1 1.1
2017-Sep-21 23:00S 24°24' W 046°29'1 1.1
2017-Sep-21 22:30S 24°24' W 046°28'1 1.1
2017-Sep-21 22:00S 24°24' W 046°28'1 1.1
2017-Sep-21 21:30S 24°24' W 046°27'1 1.1
2017-Sep-21 21:00S 24°24' W 046°27'1 1.1
2017-Sep-21 20:30S 24°24' W 046°26'1 1.2
2017-Sep-21 20:00S 24°24' W 046°25'1 1.2
2017-Sep-21 19:30S 24°24' W 046°25'1 1.2
2017-Sep-21 19:00S 24°24' W 046°24'1 1.2
2017-Sep-21 18:30S 24°24' W 046°23'1 1.2
2017-Sep-21 18:00S 24°24' W 046°23'1 2.8
2017-Sep-21 17:30S 24°24' W 046°24'4 7.3
2017-Sep-21 17:00S 24°27' W 046°27'4 7.4
2017-Sep-21 16:30S 24°29' W 046°30'3 5.3
2017-Sep-21 16:00S 24°30' W 046°33'1 1.2
2017-Sep-21 15:30S 24°30' W 046°32'1 1.1
2017-Sep-21 15:00S 24°30' W 046°32'1 1.1
2017-Sep-21 14:30S 24°30' W 046°31'1 1.1
2017-Sep-21 14:00S 24°30' W 046°31'1 1.1
2017-Sep-21 13:30S 24°30' W 046°30'1 1.0
2017-Sep-21 13:00S 24°30' W 046°30'1 1.0
2017-Sep-21 12:30S 24°31' W 046°29'0 0.9
2017-Sep-21 12:00S 24°31' W 046°28'0 0.9
2017-Sep-21 11:30S 24°31' W 046°28'0 0.9
2017-Sep-21 11:00S 24°31' W 046°27'0 0.8
2017-Sep-21 10:30S 24°31' W 046°27'0 0.8
2017-Sep-21 10:00S 24°31' W 046°27'0 0.8
2017-Sep-21 09:30S 24°31' W 046°26'0 0.8
2017-Sep-21 09:00S 24°30' W 046°26'0 0.9
2017-Sep-21 08:30S 24°30' W 046°25'0 0.9
2017-Sep-21 08:00S 24°30' W 046°25'0 1.0
2017-Sep-21 07:30S 24°30' W 046°24'1 1.0
2017-Sep-21 07:00S 24°30' W 046°24'1 1.1
2017-Sep-21 06:30S 24°29' W 046°23'1 1.2
2017-Sep-21 06:00S 24°29' W 046°23'1 1.2
2017-Sep-21 05:30S 24°29' W 046°22'1 1.2
2017-Sep-21 05:00S 24°29' W 046°21'1 1.2
2017-Sep-21 04:30S 24°29' W 046°21'1 1.2
2017-Sep-21 04:00S 24°28' W 046°20'1 1.2
2017-Sep-21 03:30S 24°28' W 046°20'1 1.2
2017-Sep-21 03:00S 24°28' W 046°19'1 1.2
2017-Sep-21 02:30S 24°28' W 046°18'0 0.6
2017-Sep-21 02:00S 24°28' W 046°18'3 6.4
2017-Sep-21 01:30S 24°26' W 046°21'4 7.5
2017-Sep-21 01:00S 24°24' W 046°25'2 4.1
2017-Sep-21 00:30S 24°23' W 046°26'0 0.9
2017-Sep-21 00:00S 24°23' W 046°26'0 0.9
2017-Sep-20 23:28S 24°23' W 046°25'0 0.9
2017-Sep-20 23:00S 24°23' W 046°25'0 0.8
2017-Sep-20 22:30S 24°23' W 046°24'1 0.8
2017-Sep-20 21:48S 24°23' W 046°24'0 0.8
2017-Sep-20 21:30S 24°22' W 046°24'0 0.7
2017-Sep-20 21:00S 24°22' W 046°23'0 0.7
2017-Sep-20 20:29S 24°22' W 046°23'0 0.7
2017-Sep-20 20:00S 24°22' W 046°22'0 0.7
2017-Sep-20 19:30S 24°22' W 046°22'0 0.7
2017-Sep-20 18:57S 24°23' W 046°22'0 0.8
2017-Sep-20 18:30S 24°23' W 046°21'0 0.8
2017-Sep-20 18:00S 24°23' W 046°21'0 0.9
2017-Sep-20 17:30S 24°23' W 046°20'0 0.9
2017-Sep-20 17:00S 24°23' W 046°20'0 1.0
2017-Sep-20 16:30S 24°23' W 046°19'1 1.0
2017-Sep-20 16:00S 24°24' W 046°19'1 1.0
2017-Sep-20 15:30S 24°24' W 046°18'1 1.1
2017-Sep-20 15:00S 24°24' W 046°18'1 0.8
2017-Sep-20 13:56S 24°25' W 046°18'3 6.8
2017-Sep-20 13:30S 24°25' W 046°21'510.0
2017-Sep-20 13:00S 24°28' W 046°26'510.0
2017-Sep-20 12:30S 24°30' W 046°30'5 9.8
2017-Sep-20 12:00S 24°34' W 046°34'510.1
2017-Sep-20 11:30S 24°38' W 046°37'510.0
2017-Sep-20 11:00S 24°42' W 046°40'5 9.9
2017-Sep-20 10:28S 24°46' W 046°44'58 9.8
2017-Sep-20 04:29S 25°33' W 047°23'5 9.7
2017-Sep-20 03:57S 25°37' W 047°26'5 9.8
2017-Sep-20 03:26S 25°41' W 047°30'  
2017-Sep-16 20:45S 24°49' W 046°55'519.2
2017-Sep-16 20:30S 24°46' W 046°51'919.1
2017-Sep-16 20:00S 24°40' W 046°44'1019.3
2017-Sep-16 19:30S 24°33' W 046°36'1019.4
2017-Sep-16 19:00S 24°26' W 046°28'1019.5
2017-Sep-16 18:30S 24°17' W 046°25'1019.3
2017-Sep-16 18:00S 24°07' W 046°23'815.9
2017-Sep-16 17:30S 23°60' W 046°20'3 5.3
2017-Sep-16 16:58S 23°58' W 046°18'2 0.1
2017-Sep-15 16:57S 23°56' W 046°19'3 7.7
2017-Sep-15 16:30S 23°60' W 046°18'4 7.6
2017-Sep-15 16:00S 24°02' W 046°21'4 8.3
2017-Sep-15 15:30S 24°06' W 046°23'3 6.4
2017-Sep-15 15:00S 24°09' W 046°23'4 8.0
2017-Sep-15 14:30S 24°13' W 046°22'4 8.1
2017-Sep-15 14:00S 24°17' W 046°20'4 7.8
2017-Sep-15 13:30S 24°20' W 046°19'4 7.6
2017-Sep-15 13:01S 24°23' W 046°16'714.0
2017-Sep-15 12:30S 24°23' W 046°08'1019.4
2017-Sep-15 12:00S 24°22' W 045°58'1121.0
2017-Sep-15 11:30S 24°20' W 045°46'1121.6
2017-Sep-15 11:00S 24°17' W 045°35'1122.2
2017-Sep-15 10:30S 24°12' W 045°25'1122.5
2017-Sep-15 10:00S 24°06' W 045°13'1122.2
2017-Sep-15 09:30S 24°01' W 045°03'1122.3
2017-Sep-15 09:00S 23°56' W 044°52'  
Track history (hours):
 
Tides and Currents Weather Stations Pressure Air Temp Water Temp Dewpoint Dewpoint Depression Visibility Wind Speed Wind Dir Waves Ship Positions

MSC Fiammetta

Last reported at 2017-Sep-22 02:00 UTC. Time now 2017-Sep-25 01:08 UTC.
Position S 24°19' W 046°24'.

Length 277 m; draft 10.3 m.

Type: Ship (hazmat cat A). MMSI: 372843000.

Date/timePositionNaut miles runAvg speedWind from/ knotsBaromVisibWave heightAir tempDewpointWater temp
2017-Sep-22 02:00S 24°19' W 046°24'2 4.9
2017-Sep-22 01:30S 24°21' W 046°26'4 7.2
2017-Sep-22 01:00S 24°24' W 046°29'2 4.4
2017-Sep-22 00:30S 24°24' W 046°31'1 1.1
2017-Sep-22 00:00S 24°24' W 046°30'1 1.1
2017-Sep-21 23:30S 24°24' W 046°30'1 1.1
2017-Sep-21 23:00S 24°24' W 046°29'1 1.1
2017-Sep-21 22:30S 24°24' W 046°28'1 1.1
2017-Sep-21 22:00S 24°24' W 046°28'1 1.1
2017-Sep-21 21:30S 24°24' W 046°27'1 1.1
2017-Sep-21 21:00S 24°24' W 046°27'1 1.1
2017-Sep-21 20:30S 24°24' W 046°26'1 1.2
2017-Sep-21 20:00S 24°24' W 046°25'1 1.2
2017-Sep-21 19:30S 24°24' W 046°25'1 1.2
2017-Sep-21 19:00S 24°24' W 046°24'1 1.2
2017-Sep-21 18:30S 24°24' W 046°23'1 1.2
2017-Sep-21 18:00S 24°24' W 046°23'1 2.8
2017-Sep-21 17:30S 24°24' W 046°24'4 7.3
2017-Sep-21 17:00S 24°27' W 046°27'4 7.4
2017-Sep-21 16:30S 24°29' W 046°30'3 5.3
2017-Sep-21 16:00S 24°30' W 046°33'1 1.2
2017-Sep-21 15:30S 24°30' W 046°32'1 1.1
2017-Sep-21 15:00S 24°30' W 046°32'1 1.1
2017-Sep-21 14:30S 24°30' W 046°31'1 1.1
2017-Sep-21 14:00S 24°30' W 046°31'1 1.1
2017-Sep-21 13:30S 24°30' W 046°30'1 1.0
2017-Sep-21 13:00S 24°30' W 046°30'1 1.0
2017-Sep-21 12:30S 24°31' W 046°29'0 0.9
2017-Sep-21 12:00S 24°31' W 046°28'0 0.9
2017-Sep-21 11:30S 24°31' W 046°28'0 0.9
2017-Sep-21 11:00S 24°31' W 046°27'0 0.8
2017-Sep-21 10:30S 24°31' W 046°27'0 0.8
2017-Sep-21 10:00S 24°31' W 046°27'0 0.8
2017-Sep-21 09:30S 24°31' W 046°26'0 0.8
2017-Sep-21 09:00S 24°30' W 046°26'0 0.9
2017-Sep-21 08:30S 24°30' W 046°25'0 0.9
2017-Sep-21 08:00S 24°30' W 046°25'0 1.0
2017-Sep-21 07:30S 24°30' W 046°24'1 1.0
2017-Sep-21 07:00S 24°30' W 046°24'1 1.1
2017-Sep-21 06:30S 24°29' W 046°23'1 1.2
2017-Sep-21 06:00S 24°29' W 046°23'1 1.2
2017-Sep-21 05:30S 24°29' W 046°22'1 1.2
2017-Sep-21 05:00S 24°29' W 046°21'1 1.2
2017-Sep-21 04:30S 24°29' W 046°21'1 1.2
2017-Sep-21 04:00S 24°28' W 046°20'1 1.2
2017-Sep-21 03:30S 24°28' W 046°20'1 1.2
2017-Sep-21 03:00S 24°28' W 046°19'1 1.2
2017-Sep-21 02:30S 24°28' W 046°18'0 0.6
2017-Sep-21 02:00S 24°28' W 046°18'3 6.4
2017-Sep-21 01:30S 24°26' W 046°21'4 7.5
2017-Sep-21 01:00S 24°24' W 046°25'2 4.1
2017-Sep-21 00:30S 24°23' W 046°26'0 0.9
2017-Sep-21 00:00S 24°23' W 046°26'0 0.9
2017-Sep-20 23:28S 24°23' W 046°25'0 0.9
2017-Sep-20 23:00S 24°23' W 046°25'0 0.8
2017-Sep-20 22:30S 24°23' W 046°24'1 0.8
2017-Sep-20 21:48S 24°23' W 046°24'0 0.8
2017-Sep-20 21:30S 24°22' W 046°24'0 0.7
2017-Sep-20 21:00S 24°22' W 046°23'0 0.7
2017-Sep-20 20:29S 24°22' W 046°23'0 0.7
2017-Sep-20 20:00S 24°22' W 046°22'0 0.7
2017-Sep-20 19:30S 24°22' W 046°22'0 0.7
2017-Sep-20 18:57S 24°23' W 046°22'0 0.8
2017-Sep-20 18:30S 24°23' W 046°21'0 0.8
2017-Sep-20 18:00S 24°23' W 046°21'0 0.9
2017-Sep-20 17:30S 24°23' W 046°20'0 0.9
2017-Sep-20 17:00S 24°23' W 046°20'0 1.0
2017-Sep-20 16:30S 24°23' W 046°19'1 1.0
2017-Sep-20 16:00S 24°24' W 046°19'1 1.0
2017-Sep-20 15:30S 24°24' W 046°18'1 1.1
2017-Sep-20 15:00S 24°24' W 046°18'1 0.8
2017-Sep-20 13:56S 24°25' W 046°18'3 6.8
2017-Sep-20 13:30S 24°25' W 046°21'510.0
2017-Sep-20 13:00S 24°28' W 046°26'510.0
2017-Sep-20 12:30S 24°30' W 046°30'5 9.8
2017-Sep-20 12:00S 24°34' W 046°34'510.1
2017-Sep-20 11:30S 24°38' W 046°37'510.0
2017-Sep-20 11:00S 24°42' W 046°40'5 9.9
2017-Sep-20 10:28S 24°46' W 046°44'58 9.8
2017-Sep-20 04:29S 25°33' W 047°23'5 9.7
2017-Sep-20 03:57S 25°37' W 047°26'5 9.8
2017-Sep-20 03:26S 25°41' W 047°30'  
2017-Sep-16 20:45S 24°49' W 046°55'519.2
2017-Sep-16 20:30S 24°46' W 046°51'919.1
2017-Sep-16 20:00S 24°40' W 046°44'1019.3
2017-Sep-16 19:30S 24°33' W 046°36'1019.4
2017-Sep-16 19:00S 24°26' W 046°28'1019.5
2017-Sep-16 18:30S 24°17' W 046°25'1019.3
2017-Sep-16 18:00S 24°07' W 046°23'815.9
2017-Sep-16 17:30S 23°60' W 046°20'3 5.3
2017-Sep-16 16:58S 23°58' W 046°18'2 0.1
2017-Sep-15 16:57S 23°56' W 046°19'3 7.7
2017-Sep-15 16:30S 23°60' W 046°18'4 7.6
2017-Sep-15 16:00S 24°02' W 046°21'4 8.3
2017-Sep-15 15:30S 24°06' W 046°23'3 6.4
2017-Sep-15 15:00S 24°09' W 046°23'4 8.0
2017-Sep-15 14:30S 24°13' W 046°22'4 8.1
2017-Sep-15 14:00S 24°17' W 046°20'4 7.8
2017-Sep-15 13:30S 24°20' W 046°19'4 7.6
2017-Sep-15 13:01S 24°23' W 046°16'714.0
2017-Sep-15 12:30S 24°23' W 046°08'1019.4
2017-Sep-15 12:00S 24°22' W 045°58'1121.0
2017-Sep-15 11:30S 24°20' W 045°46'1121.6
2017-Sep-15 11:00S 24°17' W 045°35'1122.2
2017-Sep-15 10:30S 24°12' W 045°25'1122.5
2017-Sep-15 10:00S 24°06' W 045°13'1122.2
2017-Sep-15 09:30S 24°01' W 045°03'1122.3
2017-Sep-15 09:00S 23°56' W 044°52'  

Dump ship's entire track history